createdAt,value
2018-05-04T00:01:51.821Z,3.30
2018-05-04T00:04:27.103Z,3.50
2018-05-04T00:07:02.010Z,3.00
2018-05-04T00:09:37.057Z,3.57
2018-05-04T00:12:12.293Z,3.50
2018-05-04T00:14:47.140Z,3.27
2018-05-04T00:17:22.244Z,2.87
2018-05-04T00:19:57.200Z,3.13
2018-05-04T00:22:32.562Z,3.10
2018-05-04T00:25:07.481Z,3.53
2018-05-04T00:27:42.432Z,3.50
2018-05-04T00:30:17.172Z,3.43
2018-05-04T00:32:51.920Z,3.63
2018-05-04T00:35:27.104Z,3.53
2018-05-04T00:38:02.063Z,3.70
2018-05-04T00:40:36.770Z,3.80
2018-05-04T00:43:11.775Z,3.83
2018-05-04T00:45:46.322Z,4.13
2018-05-04T00:48:21.780Z,3.17
2018-05-04T00:50:56.809Z,3.57
2018-05-04T00:53:31.346Z,3.33
2018-05-04T00:56:06.591Z,3.47
2018-05-04T00:58:41.597Z,3.70
2018-05-04T01:01:16.750Z,3.50
2018-05-04T01:03:51.602Z,3.43
2018-05-04T01:06:26.928Z,3.43
2018-05-04T01:09:01.838Z,3.37
2018-05-04T01:11:36.495Z,3.90
2018-05-04T01:14:11.541Z,3.83
2018-05-04T01:16:46.567Z,3.50
2018-05-04T01:19:21.518Z,3.10
2018-05-04T01:21:56.413Z,3.33
2018-05-04T01:24:31.025Z,3.37
2018-05-04T01:27:06.086Z,3.93
2018-05-04T01:29:40.982Z,4.10
2018-05-04T01:32:15.856Z,4.70
2018-05-04T01:34:51.008Z,4.60
2018-05-04T01:37:26.045Z,4.60
2018-05-04T01:40:00.770Z,4.43
2018-05-04T01:42:35.496Z,4.73
2018-05-04T01:45:10.730Z,4.40
2018-05-04T01:47:45.653Z,3.80
2018-05-04T01:50:20.802Z,3.90
2018-05-04T01:52:55.642Z,3.70
2018-05-04T01:55:30.457Z,3.50
2018-05-04T01:58:05.401Z,3.40
2018-05-04T02:00:40.851Z,4.23
2018-05-04T02:03:15.549Z,3.80
2018-05-04T02:05:50.827Z,3.60
2018-05-04T02:08:25.661Z,3.87
2018-05-04T02:11:00.068Z,3.63
2018-05-04T02:13:35.314Z,4.60
2018-05-04T02:16:10.238Z,3.80
2018-05-04T02:18:44.976Z,3.40
2018-05-04T02:21:19.978Z,3.20
2018-05-04T02:23:54.811Z,4.00
2018-05-04T02:26:29.421Z,3.90
2018-05-04T02:29:03.965Z,3.67
2018-05-04T02:31:38.510Z,4.40
2018-05-04T02:34:13.626Z,3.90
2018-05-04T02:36:48.162Z,3.87
2018-05-04T02:39:23.015Z,3.90
2018-05-04T02:41:57.643Z,3.70
2018-05-04T02:44:32.866Z,3.97
2018-05-04T02:47:08.122Z,3.87
2018-05-04T02:49:43.004Z,3.53
2018-05-04T02:52:17.787Z,3.87
2018-05-04T02:54:52.425Z,4.30
2018-05-04T02:57:27.224Z,3.97
2018-05-04T03:00:02.385Z,4.33
2018-05-04T03:02:37.546Z,4.60
2018-05-04T03:05:12.874Z,4.70
2018-05-04T03:07:48.102Z,4.10
2018-05-04T03:10:23.022Z,4.03
2018-05-04T03:12:58.205Z,4.80
2018-05-04T03:15:33.096Z,4.17
2018-05-04T03:18:08.042Z,4.00
2018-05-04T03:20:42.961Z,4.47
2018-05-04T03:23:17.864Z,4.80
2018-05-04T03:25:52.713Z,3.77
2018-05-04T03:28:27.501Z,3.80
2018-05-04T03:31:02.504Z,3.80
2018-05-04T03:33:37.308Z,4.70
2018-05-04T03:36:12.252Z,4.80
2018-05-04T03:38:47.179Z,4.90
2018-05-04T03:41:22.238Z,5.33
2018-05-04T03:43:57.348Z,5.23
2018-05-04T03:46:32.277Z,5.33
2018-05-04T03:49:06.990Z,5.23
2018-05-04T03:51:41.784Z,5.67
2018-05-04T03:54:16.785Z,5.40
2018-05-04T03:56:52.576Z,5.30
2018-05-04T03:59:38.442Z,4.80
2018-05-04T04:02:24.447Z,5.77
2018-05-04T04:04:59.133Z,4.63
2018-05-04T04:07:34.307Z,5.30
2018-05-04T04:10:08.924Z,5.20
2018-05-04T04:12:44.844Z,4.93
2018-05-04T04:15:19.722Z,4.77
2018-05-04T04:17:54.375Z,5.67
2018-05-04T04:20:29.568Z,4.37
2018-05-04T04:23:04.460Z,3.90
2018-05-04T04:25:39.369Z,3.67
2018-05-04T04:28:14.369Z,3.70
2018-05-04T04:30:49.198Z,3.87
2018-05-04T04:33:24.182Z,4.67
2018-05-04T04:35:59.077Z,4.83
2018-05-04T04:38:34.194Z,3.97
2018-05-04T04:41:09.062Z,4.03
2018-05-04T04:43:44.081Z,4.67
2018-05-04T04:46:19.014Z,4.80
2018-05-04T04:48:53.851Z,4.80
2018-05-04T04:51:28.995Z,4.83
2018-05-04T04:54:03.789Z,5.23
2018-05-04T04:56:38.849Z,5.40
2018-05-04T04:59:13.785Z,5.37
2018-05-04T05:01:48.568Z,5.97
2018-05-04T05:04:23.512Z,5.60
2018-05-04T05:06:58.575Z,6.30
2018-05-04T05:09:33.603Z,6.27
2018-05-04T05:12:08.657Z,5.83
2018-05-04T05:14:43.672Z,6.80
2018-05-04T05:17:18.538Z,6.70
2018-05-04T05:19:53.033Z,6.93
2018-05-04T05:22:27.196Z,6.20
2018-05-04T05:25:02.298Z,5.93
2018-05-04T05:27:37.162Z,5.70
2018-05-04T05:30:12.383Z,5.53
2018-05-04T05:32:47.253Z,7.00
2018-05-04T05:35:22.424Z,6.47
2018-05-04T05:37:57.352Z,5.73
2018-05-04T05:40:32.241Z,5.90
2018-05-04T05:43:07.161Z,6.03
2018-05-04T05:45:41.965Z,5.80
2018-05-04T05:48:16.559Z,6.23
2018-05-04T05:50:51.641Z,6.13
2018-05-04T05:53:26.046Z,6.37
2018-05-04T05:56:00.898Z,6.70
2018-05-04T05:58:35.501Z,7.20
2018-05-04T06:01:10.418Z,7.10
2018-05-04T06:03:45.043Z,6.50
2018-05-04T06:06:20.034Z,6.53
2018-05-04T06:08:54.841Z,5.93
2018-05-04T06:11:29.789Z,6.30
2018-05-04T06:14:04.892Z,6.57
2018-05-04T06:16:39.926Z,6.53
2018-05-04T06:19:14.585Z,6.50
2018-05-04T06:21:49.738Z,6.30
2018-05-04T06:24:24.623Z,8.20
2018-05-04T06:26:59.282Z,6.57
2018-05-04T06:29:34.021Z,7.10
2018-05-04T06:32:09.196Z,6.87
2018-05-04T06:34:44.262Z,6.50
2018-05-04T06:37:18.702Z,6.70
2018-05-04T06:39:53.968Z,7.30
2018-05-04T06:42:28.729Z,6.47
2018-05-04T06:45:03.122Z,7.00
2018-05-04T06:47:38.146Z,6.73
2018-05-04T06:50:12.849Z,6.67
2018-05-04T06:52:47.729Z,7.20
2018-05-04T06:55:22.562Z,6.40
2018-05-04T06:57:57.458Z,5.73
2018-05-04T07:00:32.280Z,6.50
2018-05-04T07:03:07.213Z,7.00
2018-05-04T07:05:42.059Z,6.33
2018-05-04T07:08:17.169Z,6.17
2018-05-04T07:10:51.901Z,7.03
2018-05-04T07:13:26.753Z,5.90
2018-05-04T07:16:02.064Z,6.03
2018-05-04T07:18:37.465Z,5.83
2018-05-04T07:21:12.189Z,6.30
2018-05-04T07:23:47.118Z,5.60
2018-05-04T07:26:21.626Z,6.23
2018-05-04T07:28:56.816Z,6.07
2018-05-04T07:31:31.861Z,5.47
2018-05-04T07:34:06.649Z,6.33
2018-05-04T07:36:41.470Z,6.30
2018-05-04T07:39:16.409Z,6.60
2018-05-04T07:41:51.528Z,6.40
2018-05-04T07:44:26.233Z,6.30
2018-05-04T07:47:01.226Z,6.33
2018-05-04T07:49:36.217Z,6.40
2018-05-04T07:52:11.173Z,5.40
2018-05-04T07:54:45.968Z,6.20
2018-05-04T07:57:20.697Z,6.10
2018-05-04T07:59:56.034Z,5.80
2018-05-04T08:02:30.782Z,6.60
2018-05-04T08:05:05.890Z,5.30
2018-05-04T08:07:40.748Z,5.07
2018-05-04T08:10:15.708Z,5.90
2018-05-04T08:12:50.524Z,5.80
2018-05-04T08:15:25.645Z,5.83
2018-05-04T08:18:00.293Z,5.40
2018-05-04T08:20:35.013Z,4.90
2018-05-04T08:23:09.951Z,4.83
2018-05-04T08:25:44.762Z,5.00
2018-05-04T08:28:19.885Z,5.17
2018-05-04T08:30:54.583Z,5.40
2018-05-04T08:33:29.522Z,4.73
2018-05-04T08:36:03.852Z,5.47
2018-05-04T08:38:38.329Z,4.50
2018-05-04T08:41:13.032Z,5.03
2018-05-04T08:43:48.125Z,5.43
2018-05-04T08:46:22.928Z,6.37
2018-05-04T08:48:57.845Z,4.70
2018-05-04T08:51:32.990Z,5.13
2018-05-04T08:54:07.392Z,4.43
2018-05-04T08:56:42.093Z,4.10
2018-05-04T08:59:17.096Z,4.00
2018-05-04T09:01:51.688Z,3.30
2018-05-04T09:04:27.005Z,3.70
2018-05-04T09:07:02.099Z,2.90
2018-05-04T09:09:37.123Z,4.00
2018-05-04T09:12:12.112Z,4.47
2018-05-04T09:14:47.102Z,3.93
2018-05-04T09:17:21.930Z,3.70
2018-05-04T09:19:56.675Z,3.87
2018-05-04T09:22:31.586Z,3.23
2018-05-04T09:25:06.413Z,3.43
2018-05-04T09:27:41.674Z,3.50
2018-05-04T09:30:16.379Z,3.77
2018-05-04T09:32:51.221Z,3.40
2018-05-04T09:35:26.028Z,2.87
2018-05-04T09:38:00.834Z,3.17
2018-05-04T09:40:35.614Z,3.33
2018-05-04T09:43:10.647Z,3.00
2018-05-04T09:45:45.602Z,3.50
2018-05-04T09:48:20.199Z,2.47
2018-05-04T09:50:54.935Z,3.23
2018-05-04T09:53:30.102Z,2.70
2018-05-04T09:56:05.174Z,2.53
2018-05-04T09:58:40.081Z,2.83
2018-05-04T10:01:14.529Z,4.30
2018-05-04T10:03:49.400Z,3.93
2018-05-04T10:06:24.285Z,3.87
2018-05-04T10:08:59.057Z,3.50
2018-05-04T10:11:33.644Z,3.40
2018-05-04T10:14:08.711Z,3.80
2018-05-04T10:16:43.498Z,3.70
2018-05-04T10:19:18.325Z,4.00
2018-05-04T10:21:53.273Z,3.63
2018-05-04T10:24:28.064Z,3.50
2018-05-04T10:27:02.963Z,3.80
2018-05-04T10:29:38.009Z,4.67
2018-05-04T10:32:12.434Z,4.67
2018-05-04T10:34:47.474Z,4.37
2018-05-04T10:37:21.956Z,4.30
2018-05-04T10:39:56.997Z,4.40
2018-05-04T10:42:32.262Z,3.67
2018-05-04T10:45:07.214Z,3.03
2018-05-04T10:47:42.054Z,3.80
2018-05-04T10:50:16.857Z,3.97
2018-05-04T10:52:51.757Z,4.40
2018-05-04T10:55:26.922Z,3.73
2018-05-04T10:58:01.761Z,3.40
2018-05-04T11:00:36.495Z,3.90
2018-05-04T11:03:11.318Z,3.40
2018-05-04T11:05:46.158Z,3.93
2018-05-04T11:08:21.306Z,3.20
2018-05-04T11:10:56.314Z,3.37
2018-05-04T11:13:31.162Z,3.90
2018-05-04T11:16:06.321Z,3.37
2018-05-04T11:18:41.342Z,3.70
2018-05-04T11:21:16.169Z,3.93
2018-05-04T11:23:51.644Z,3.80
2018-05-04T11:26:26.433Z,3.80
2018-05-04T11:29:01.589Z,4.37
2018-05-04T11:31:36.058Z,3.90
2018-05-04T11:34:11.265Z,3.60
2018-05-04T11:36:46.177Z,4.17
2018-05-04T11:39:20.916Z,4.27
2018-05-04T11:41:55.740Z,4.10
2018-05-04T11:44:31.086Z,3.70
2018-05-04T11:47:05.786Z,4.30
2018-05-04T11:49:41.056Z,3.63
2018-05-04T11:52:15.892Z,4.50
2018-05-04T11:54:50.698Z,4.20
2018-05-04T11:57:25.548Z,4.20
2018-05-04T12:00:00.066Z,3.97
2018-05-04T12:02:34.925Z,4.10
2018-05-04T12:05:09.834Z,3.90
2018-05-04T12:07:45.017Z,4.10
2018-05-04T12:10:19.989Z,4.60
2018-05-04T12:12:54.664Z,4.10
2018-05-04T12:15:29.842Z,5.13
2018-05-04T12:18:04.397Z,4.43
2018-05-04T12:20:39.630Z,4.07
2018-05-04T12:23:15.158Z,4.90
2018-05-04T12:25:50.209Z,6.03
2018-05-04T12:28:25.341Z,4.30
2018-05-04T12:31:00.041Z,4.53
2018-05-04T12:33:34.815Z,4.50
2018-05-04T12:36:10.193Z,4.70
2018-05-04T12:38:45.050Z,4.77
2018-05-04T12:41:20.209Z,4.63
2018-05-04T12:43:55.581Z,5.63
2018-05-04T12:46:30.689Z,5.67
2018-05-04T12:49:05.789Z,6.07
2018-05-04T12:51:40.568Z,5.67
2018-05-04T12:54:15.620Z,6.13
2018-05-04T12:56:50.751Z,6.13
2018-05-04T12:59:25.025Z,6.93
2018-05-04T13:02:00.069Z,6.80
2018-05-04T13:04:35.042Z,6.60
2018-05-04T13:07:09.978Z,6.17
2018-05-04T13:09:44.884Z,5.47
2018-05-04T13:12:19.726Z,5.70
2018-05-04T13:14:54.527Z,5.60
2018-05-04T13:17:29.535Z,5.00
2018-05-04T13:20:05.053Z,6.43
2018-05-04T13:22:39.850Z,5.50
2018-05-04T13:25:14.786Z,5.93
2018-05-04T13:27:49.850Z,6.37
2018-05-04T13:30:24.681Z,7.80
2018-05-04T13:33:00.011Z,6.43
2018-05-04T13:35:34.997Z,6.20
2018-05-04T13:38:10.002Z,5.83
2018-05-04T13:40:44.614Z,5.90
2018-05-04T13:43:19.420Z,6.37
2018-05-04T13:45:54.446Z,6.20
2018-05-04T13:48:29.293Z,6.50
2018-05-04T13:51:03.918Z,6.73
2018-05-04T13:53:38.898Z,5.70
2018-05-04T13:56:14.042Z,5.20
2018-05-04T13:58:48.682Z,5.10
2018-05-04T14:01:23.342Z,5.87
2018-05-04T14:03:58.551Z,5.50
2018-05-04T14:06:33.094Z,5.13
2018-05-04T14:09:08.126Z,5.37
2018-05-04T14:11:42.986Z,5.23
2018-05-04T14:14:18.129Z,5.20
2018-05-04T14:16:52.972Z,5.20
2018-05-04T14:19:28.393Z,5.77
2018-05-04T14:22:03.424Z,6.17
2018-05-04T14:24:38.325Z,5.17
2018-05-04T14:27:13.240Z,5.10
2018-05-04T14:29:48.049Z,4.97
2018-05-04T14:32:22.869Z,5.03
2018-05-04T14:34:57.488Z,5.17
2018-05-04T14:37:32.191Z,5.40
2018-05-04T14:40:07.137Z,5.50
2018-05-04T14:42:42.398Z,5.20
2018-05-04T14:45:17.125Z,5.27
2018-05-04T14:47:51.690Z,5.80
2018-05-04T14:50:26.585Z,5.50
2018-05-04T14:53:01.384Z,4.60
2018-05-04T14:55:36.346Z,5.87
2018-05-04T14:58:11.626Z,5.03
2018-05-04T15:00:46.621Z,4.73
2018-05-04T15:03:21.752Z,5.10
2018-05-04T15:05:56.501Z,4.63
2018-05-04T15:08:31.437Z,5.43
2018-05-04T15:11:06.704Z,4.80
2018-05-04T15:13:41.436Z,4.27
2018-05-04T15:16:16.286Z,5.40
2018-05-04T15:18:51.090Z,5.27
2018-05-04T15:21:25.861Z,4.23
2018-05-04T15:24:00.760Z,5.03
2018-05-04T15:26:35.666Z,4.13
2018-05-04T15:29:10.903Z,4.93
2018-05-04T15:31:45.602Z,5.60
2018-05-04T15:34:20.570Z,4.87
2018-05-04T15:36:55.391Z,4.80
2018-05-04T15:39:30.081Z,5.00
2018-05-04T15:42:05.469Z,5.00
2018-05-04T15:44:40.406Z,5.07
2018-05-04T15:47:15.506Z,4.50
2018-05-04T15:49:50.727Z,4.60
2018-05-04T15:52:25.706Z,4.50
2018-05-04T15:55:00.509Z,4.50
2018-05-04T15:57:35.683Z,5.10
2018-05-04T16:00:10.533Z,6.40
2018-05-04T16:02:45.434Z,6.73
2018-05-04T16:05:20.478Z,5.17
2018-05-04T16:07:55.189Z,7.43
2018-05-04T16:10:30.164Z,5.30
2018-05-04T16:13:05.102Z,4.67
2018-05-04T16:15:40.246Z,5.10
2018-05-04T16:18:14.941Z,4.73
2018-05-04T16:20:50.192Z,5.17
2018-05-04T16:23:25.266Z,6.17
2018-05-04T16:26:00.157Z,4.83
2018-05-04T16:28:35.224Z,4.67
2018-05-04T16:31:10.228Z,5.30
2018-05-04T16:33:45.056Z,4.77
2018-05-04T16:36:20.096Z,7.30
2018-05-04T16:38:54.908Z,10.77
2018-05-04T16:41:30.066Z,8.90
2018-05-04T16:44:04.681Z,5.60
2018-05-04T16:46:44.972Z,6.50
2018-05-04T16:49:25.481Z,4.67
2018-05-04T16:52:00.714Z,4.87
2018-05-04T16:54:35.718Z,3.97
2018-05-04T16:57:10.856Z,4.27
2018-05-04T16:59:45.541Z,4.30
2018-05-04T17:02:20.687Z,4.47
2018-05-04T17:04:55.426Z,4.33
2018-05-04T17:07:29.912Z,4.20
2018-05-04T17:10:04.906Z,4.00
2018-05-04T17:12:40.163Z,3.80
2018-05-04T17:15:15.133Z,4.23
2018-05-04T17:17:50.198Z,4.50
2018-05-04T17:20:25.076Z,4.27
2018-05-04T17:22:59.264Z,4.90
2018-05-04T17:25:34.153Z,4.27
2018-05-04T17:28:08.855Z,4.57
2018-05-04T17:30:43.860Z,4.20
2018-05-04T17:33:18.653Z,4.10
2018-05-04T17:35:53.721Z,5.00
2018-05-04T17:38:28.480Z,4.40
2018-05-04T17:41:03.781Z,4.23
2018-05-04T17:43:38.741Z,4.33
2018-05-04T17:46:13.948Z,4.50
2018-05-04T17:48:48.266Z,4.30
2018-05-04T17:51:23.109Z,4.63
2018-05-04T17:53:58.053Z,4.33
2018-05-04T17:56:32.855Z,4.23
2018-05-04T17:59:07.904Z,4.50
2018-05-04T18:01:43.005Z,4.10
2018-05-04T18:04:17.849Z,4.30
2018-05-04T18:06:52.911Z,4.90
2018-05-04T18:09:27.913Z,5.00
2018-05-04T18:12:02.930Z,5.37
2018-05-04T18:14:38.214Z,4.63
2018-05-04T18:17:13.039Z,5.13
2018-05-04T18:19:47.669Z,5.60
2018-05-04T18:22:22.721Z,5.77
2018-05-04T18:24:57.735Z,5.63
2018-05-04T18:27:32.716Z,4.90
2018-05-04T18:30:08.030Z,5.20
2018-05-04T18:32:42.983Z,6.00
2018-05-04T18:35:18.098Z,4.77
2018-05-04T18:37:52.929Z,4.97
2018-05-04T18:40:28.065Z,4.97
2018-05-04T18:43:03.292Z,5.40
2018-05-04T18:45:38.237Z,6.17
2018-05-04T18:48:13.210Z,4.93
2018-05-04T18:50:48.212Z,5.90
2018-05-04T18:53:26.987Z,4.60
2018-05-04T18:56:02.074Z,4.97
2018-05-04T18:58:37.014Z,4.83
2018-05-04T19:01:12.221Z,5.17
2018-05-04T19:03:47.265Z,4.90
2018-05-04T19:06:21.931Z,4.90
2018-05-04T19:08:56.965Z,5.33
2018-05-04T19:11:32.280Z,5.33
2018-05-04T19:14:07.344Z,4.37
2018-05-04T19:16:41.976Z,4.87
2018-05-04T19:19:17.273Z,5.73
2018-05-04T19:21:52.191Z,5.20
2018-05-04T19:24:27.245Z,4.83
2018-05-04T19:27:02.199Z,4.57
2018-05-04T19:29:37.029Z,4.63
2018-05-04T19:32:11.853Z,4.60
2018-05-04T19:34:46.831Z,6.33
2018-05-04T19:37:21.785Z,4.03
2018-05-04T19:39:56.758Z,3.47
2018-05-04T19:42:31.877Z,4.07
2018-05-04T19:45:07.023Z,3.33
2018-05-04T19:47:42.073Z,3.50
2018-05-04T19:50:17.009Z,3.00
2018-05-04T19:52:51.426Z,3.47
2018-05-04T19:55:26.315Z,2.90
2018-05-04T19:58:01.085Z,3.60
2018-05-04T20:00:35.906Z,2.93
2018-05-04T20:03:10.980Z,2.60
2018-05-04T20:05:46.089Z,2.73
2018-05-04T20:08:21.054Z,2.63
2018-05-04T20:10:56.149Z,2.60
2018-05-04T20:13:30.989Z,3.13
2018-05-04T20:16:06.081Z,3.03
2018-05-04T20:18:40.881Z,4.30
2018-05-04T20:21:16.176Z,3.70
2018-05-04T20:23:51.032Z,2.97
2018-05-04T20:26:26.345Z,3.10
2018-05-04T20:29:01.209Z,3.60
2018-05-04T20:31:36.509Z,4.43
2018-05-04T20:34:11.642Z,3.23
2018-05-04T20:36:46.362Z,3.97
2018-05-04T20:39:21.123Z,3.33
2018-05-04T20:41:56.518Z,3.30
2018-05-04T20:44:31.595Z,3.03
2018-05-04T20:47:06.445Z,3.67
2018-05-04T20:49:41.367Z,3.87
2018-05-04T20:52:16.430Z,3.27
2018-05-04T20:54:51.462Z,3.00
2018-05-04T20:57:26.261Z,3.70
2018-05-04T21:00:01.593Z,3.27
2018-05-04T21:02:35.993Z,3.37
2018-05-04T21:05:10.882Z,2.90
2018-05-04T21:07:45.749Z,2.83
2018-05-04T21:10:20.828Z,2.67
2018-05-04T21:12:55.561Z,2.20
2018-05-04T21:15:30.584Z,2.27
2018-05-04T21:18:05.370Z,3.40
2018-05-04T21:20:40.192Z,2.63
2018-05-04T21:23:15.522Z,2.93
2018-05-04T21:25:50.265Z,3.23
2018-05-04T21:28:25.049Z,2.87
2018-05-04T21:31:00.022Z,3.30
2018-05-04T21:33:34.652Z,3.23
2018-05-04T21:36:10.230Z,3.63
2018-05-04T21:38:45.437Z,2.90
2018-05-04T21:41:20.431Z,3.40
2018-05-04T21:43:55.777Z,2.90
2018-05-04T21:46:30.465Z,3.40
2018-05-04T21:49:05.577Z,3.33
2018-05-04T21:51:40.169Z,4.07
2018-05-04T21:54:14.786Z,3.20
2018-05-04T21:56:49.554Z,3.80
2018-05-04T21:59:24.418Z,3.10
2018-05-04T22:01:59.318Z,3.27
2018-05-04T22:04:34.164Z,3.47
2018-05-04T22:07:08.882Z,3.40
2018-05-04T22:09:43.620Z,3.73
2018-05-04T22:12:18.848Z,3.20
2018-05-04T22:14:53.524Z,3.30
2018-05-04T22:17:28.452Z,4.03
2018-05-04T22:20:03.593Z,3.70
2018-05-04T22:22:38.395Z,3.67
2018-05-04T22:25:13.302Z,3.13
2018-05-04T22:27:48.243Z,2.67
2018-05-04T22:30:23.039Z,2.43
2018-05-04T22:32:58.058Z,4.23
2018-05-04T22:35:33.044Z,3.40
2018-05-04T22:38:07.772Z,2.90
2018-05-04T22:40:42.712Z,4.10
2018-05-04T22:43:18.216Z,4.00
2018-05-04T22:45:53.581Z,4.43
2018-05-04T22:48:28.520Z,4.30
2018-05-04T22:51:03.324Z,4.20
2018-05-04T22:53:38.404Z,3.73
2018-05-04T22:56:13.517Z,3.23
2018-05-04T22:58:48.617Z,4.60
2018-05-04T23:01:23.511Z,3.07
2018-05-04T23:03:58.342Z,3.50
2018-05-04T23:06:33.223Z,3.57
2018-05-04T23:09:08.375Z,2.90
2018-05-04T23:11:43.052Z,3.13
2018-05-04T23:14:18.554Z,3.77
2018-05-04T23:16:53.029Z,4.60
2018-05-04T23:19:27.894Z,3.90
2018-05-04T23:22:02.813Z,3.90
2018-05-04T23:24:37.992Z,4.47
2018-05-04T23:27:12.757Z,5.30
2018-05-04T23:29:47.415Z,4.30
2018-05-04T23:32:22.605Z,3.63
2018-05-04T23:34:57.827Z,4.40
2018-05-04T23:37:32.657Z,4.50
2018-05-04T23:40:07.741Z,5.17
2018-05-04T23:42:42.546Z,4.40
2018-05-04T23:45:17.606Z,3.73
2018-05-04T23:47:52.455Z,3.70
2018-05-04T23:50:27.413Z,4.00
2018-05-04T23:53:02.283Z,3.60
2018-05-04T23:55:37.198Z,3.60
2018-05-04T23:58:12.295Z,3.70
